Time;durP1;ratioP1;P1;durP2;ratioP2;P2;SDS_P1;SDS_P2;PMS_P1;PMS_P2;Temp;Humidity;BMP_temperature;BMP_pressure;BME280_temperature;BME280_humidity;BME280_pressure;Samples;Min_cycle;Max_cycle;Signal;HPM_P1;HPM_P2
2021/12/15 00:02:19;;;;;;;12.37;10.67;;;;;;;5.51;89.50;100608.44;5018873;28;20195;-80
2021/12/15 00:05:45;;;;;;;11.33;10.13;;;;;;;5.48;89.96;100599.94;5114092;23;20236;-83
2021/12/15 00:08:52;;;;;;;13.77;10.63;;;;;;;5.50;89.81;100613.94;5127148;23;20215;-80
2021/12/15 00:11:40;;;;;;;13.10;11.80;;;;;;;5.50;89.79;100613.94;5030179;23;20305;-80
2021/12/15 00:14:57;;;;;;;13.80;11.53;;;;;;;5.50;90.20;100604.13;5047569;23;20218;-80
2021/12/15 00:18:09;;;;;;;13.33;10.60;;;;;;;5.40;89.94;100587.50;5054922;23;20297;-80
2021/12/15 00:20:37;;;;;;;13.90;11.10;;;;;;;5.47;89.76;100608.91;5110126;23;20218;-80
2021/12/15 00:24:18;;;;;;;14.10;11.37;;;;;;;5.51;90.35;100624.38;5099930;23;20226;-80
2021/12/15 00:27:08;;;;;;;13.30;11.90;;;;;;;5.38;90.29;100589.47;5064428;23;20234;-81
2021/12/15 00:29:53;;;;;;;12.57;11.20;;;;;;;5.41;90.70;100607.75;5125143;23;20209;-80
2021/12/15 00:32:45;;;;;;;14.00;11.80;;;;;;;5.43;90.89;100608.41;5062583;23;20249;-80
2021/12/15 00:35:55;;;;;;;14.70;11.57;;;;;;;5.35;91.16;100600.44;5138656;23;20239;-80
2021/12/15 00:39:16;;;;;;;14.00;11.57;;;;;;;5.40;90.90;100606.09;5055877;23;20235;-81
2021/12/15 00:42:18;;;;;;;13.77;11.87;;;;;;;5.36;91.22;100603.94;5062858;23;20305;-81
2021/12/15 00:45:52;;;;;;;14.13;12.07;;;;;;;5.36;91.82;100609.25;5060528;23;20221;-81
2021/12/15 00:48:19;;;;;;;16.13;12.77;;;;;;;5.29;92.08;100595.75;5037792;28;20651;-81
2021/12/15 00:51:38;;;;;;;15.10;12.17;;;;;;;5.33;91.52;100607.72;5054464;28;20221;-81
2021/12/15 00:58:11;;;;;;;14.97;12.40;;;;;;;5.38;92.01;100618.69;5086978;23;20268;-81
2021/12/15 01:01:15;;;;;;;16.63;12.80;;;;;;;5.15;91.35;100578.63;5032204;23;20230;-81
2021/12/15 01:04:12;;;;;;;14.10;12.43;;;;;;;5.35;92.07;100620.84;5039597;23;20253;-81
2021/12/15 01:07:24;;;;;;;15.83;12.73;;;;;;;5.39;92.40;100619.53;5048128;23;20226;-81
2021/12/15 01:21:00;;;;;;;13.80;12.33;;;;;;;5.47;92.00;100635.50;5007938;28;20308;-82
2021/12/15 01:23:29;;;;;;;18.00;13.30;;;;;;;5.45;91.50;100630.38;5006604;23;20264;-82
2021/12/15 01:26:06;;;;;;;16.60;13.63;;;;;;;5.46;91.00;100634.66;5020465;23;20298;-82
2021/12/15 01:28:43;;;;;;;17.00;14.27;;;;;;;5.48;91.17;100634.50;5028756;28;20257;-82
2021/12/15 01:31:14;;;;;;;18.43;14.63;;;;;;;5.50;90.56;100632.53;5045412;28;20197;-81
2021/12/15 01:33:45;;;;;;;18.23;15.17;;;;;;;5.33;90.09;100621.84;5029959;28;20253;-81
2021/12/15 01:36:13;;;;;;;18.73;14.87;;;;;;;5.37;91.20;100634.78;5024902;23;20227;-81
2021/12/15 01:38:42;;;;;;;18.23;15.40;;;;;;;5.31;91.53;100621.19;5008791;28;20227;-82
2021/12/15 01:41:22;;;;;;;20.80;15.67;;;;;;;5.30;91.81;100624.84;5026676;28;20221;-81
2021/12/15 01:46:57;;;;;;;18.47;14.97;;;;;;;5.32;91.81;100622.00;5025770;23;20260;-81
2021/12/15 01:49:38;;;;;;;19.37;14.93;;;;;;;5.31;91.79;100626.50;5045737;28;20229;-82
2021/12/15 01:52:30;;;;;;;19.33;14.97;;;;;;;5.27;92.40;100622.47;5048580;28;20229;-81
2021/12/15 01:55:13;;;;;;;20.27;15.43;;;;;;;5.32;92.62;100627.31;5032380;28;20198;-81
2021/12/15 01:57:48;;;;;;;17.83;14.73;;;;;;;5.31;92.70;100623.84;5032361;28;20190;-81
2021/12/15 02:00:32;;;;;;;21.80;16.30;;;;;;;5.41;92.40;100634.34;5049176;28;20261;-81
2021/12/15 02:03:19;;;;;;;20.17;15.97;;;;;;;5.38;92.31;100628.50;5049836;28;20673;-82
2021/12/15 02:05:46;;;;;;;20.53;16.93;;;;;;;5.39;91.44;100630.16;5039650;23;20257;-81
2021/12/15 02:08:14;;;;;;;17.57;14.80;;;;;;;5.37;91.83;100629.47;5045786;28;20228;-81
2021/12/15 02:10:56;;;;;;;18.60;15.90;;;;;;;5.32;91.47;100622.00;5049649;28;20198;-81
2021/12/15 02:13:26;;;;;;;19.53;15.23;;;;;;;5.26;91.55;100612.03;5050902;28;20225;-81
2021/12/15 02:15:59;;;;;;;19.67;15.43;;;;;;;5.35;91.99;100631.47;5031384;23;20257;-81
2021/12/15 02:18:44;;;;;;;18.50;15.37;;;;;;;5.36;92.13;100627.84;5014339;28;20234;-82
2021/12/15 02:21:20;;;;;;;19.00;15.13;;;;;;;5.40;92.06;100629.19;5029747;28;20230;-81
2021/12/15 02:24:09;;;;;;;19.47;15.23;;;;;;;5.35;92.58;100623.50;5015538;28;20595;-81
2021/12/15 02:26:49;;;;;;;16.07;14.27;;;;;;;5.38;92.71;100623.19;5042204;23;20218;-81
2021/12/15 02:29:29;;;;;;;18.37;14.37;;;;;;;5.30;92.42;100611.53;5049679;28;20302;-82
2021/12/15 02:34:56;;;;;;;14.83;11.83;;;;;;;5.45;92.12;100618.91;5027901;28;20250;-81
2021/12/15 02:37:25;;;;;;;11.00;9.80;;;;;;;5.42;91.93;100628.00;5029939;28;20229;-81
2021/12/15 02:39:59;;;;;;;9.77;8.77;;;;;;;5.55;91.89;100617.72;5027709;28;20246;-81
2021/12/15 02:42:34;;;;;;;9.60;8.60;;;;;;;5.51;91.32;100608.44;5031444;28;20232;-81
2021/12/15 02:45:10;;;;;;;8.17;7.37;;;;;;;5.48;91.28;100614.06;5050795;23;20242;-81
2021/12/15 02:47:41;;;;;;;7.50;6.80;;;;;;;5.47;90.54;100609.75;5035500;23;20233;-82
2021/12/15 02:50:24;;;;;;;6.93;6.33;;;;;;;5.44;90.95;100603.94;5020677;23;20246;-82
2021/12/15 02:53:04;;;;;;;7.47;6.77;;;;;;;5.51;90.92;100616.41;5038984;23;20218;-81
2021/12/15 02:55:31;;;;;;;7.03;6.33;;;;;;;5.56;89.79;100610.59;5019074;23;20230;-81
2021/12/15 02:57:58;;;;;;;6.60;6.00;;;;;;;5.58;89.31;100614.78;5032606;23;20230;-81
2021/12/15 03:00:57;;;;;;;6.30;5.80;;;;;;;5.62;88.71;100620.59;5050905;28;20210;-81
2021/12/15 03:06:20;;;;;;;6.67;6.07;;;;;;;5.59;88.15;100623.56;5051042;28;20230;-82
2021/12/15 03:09:16;;;;;;;6.60;6.00;;;;;;;5.65;87.23;100621.06;5037618;28;20209;-81
2021/12/15 03:17:27;;;;;;;7.07;6.40;;;;;;;5.74;86.81;100635.22;4983587;28;20256;-81
2021/12/15 03:20:30;;;;;;;7.37;6.67;;;;;;;5.70;85.42;100616.09;5033771;28;20584;-80
2021/12/15 03:22:59;;;;;;;7.47;6.77;;;;;;;5.83;86.44;100628.09;4987106;28;20272;-82
2021/12/15 03:25:30;;;;;;;7.57;6.87;;;;;;;5.75;85.36;100618.28;5005142;23;20245;-81
2021/12/15 03:39:47;;;;;;;6.40;5.90;;;;;;;5.89;84.66;100633.59;5060685;23;20217;-81
2021/12/15 03:42:21;;;;;;;6.77;6.17;;;;;;;5.88;84.20;100633.78;5121961;23;20217;-81
2021/12/15 03:44:55;;;;;;;6.67;6.07;;;;;;;5.78;83.77;100620.63;5024484;23;20231;-81
2021/12/15 03:47:31;;;;;;;6.90;6.23;;;;;;;5.95;83.67;100638.28;5030371;23;20637;-82
2021/12/15 03:50:04;;;;;;;6.50;5.90;;;;;;;5.90;83.84;100632.63;5049975;23;20329;-82
2021/12/15 03:52:35;;;;;;;6.90;6.30;;;;;;;5.88;82.78;100636.47;5036051;23;20222;-82
2021/12/15 03:55:29;;;;;;;7.17;6.47;;;;;;;5.97;83.16;100630.13;5026787;28;20234;-82
2021/12/15 03:58:21;;;;;;;6.70;6.10;;;;;;;5.96;82.33;100631.13;5054580;23;20222;-81
2021/12/15 04:01:31;;;;;;;6.63;6.03;;;;;;;5.97;82.29;100635.47;5030759;28;20261;-81
2021/12/15 04:04:01;;;;;;;6.33;5.83;;;;;;;5.97;81.92;100627.47;4984807;28;20252;-81
2021/12/15 04:06:47;;;;;;;6.47;5.57;;;;;;;6.11;81.16;100632.13;4977346;23;20224;31
2021/12/15 04:09:19;;;;;;;5.43;4.93;;;;;;;6.13;80.63;100638.94;4937466;29;20315;-82
2021/12/15 04:12:00;;;;;;;5.60;5.10;;;;;;;6.12;80.79;100634.63;4970900;29;20216;-82
2021/12/15 04:14:42;;;;;;;5.60;5.10;;;;;;;6.17;80.00;100644.75;4969378;28;20232;-82
2021/12/15 04:17:26;;;;;;;5.57;4.97;;;;;;;6.26;78.99;100650.91;4969836;28;20221;-81
2021/12/15 04:20:12;;;;;;;5.57;5.07;;;;;;;6.19;79.65;100648.94;5009213;28;20277;-82
2021/12/15 04:22:41;;;;;;;6.10;5.50;;;;;;;6.20;79.85;100633.81;5027513;28;20269;-81
2021/12/15 04:25:30;;;;;;;5.80;5.30;;;;;;;6.16;79.79;100648.41;5045100;23;20255;-81
2021/12/15 04:28:13;;;;;;;5.60;5.10;;;;;;;6.14;79.72;100651.25;5007429;28;20231;-82
2021/12/15 04:30:48;;;;;;;6.00;4.93;;;;;;;6.16;79.53;100661.72;5008718;28;20231;-82
2021/12/15 04:33:24;;;;;;;6.00;5.47;;;;;;;6.05;80.34;100651.41;5002159;28;20171;-81
2021/12/15 04:35:55;;;;;;;5.30;4.80;;;;;;;6.20;79.61;100661.22;4991760;28;20222;-82
2021/12/15 04:38:33;;;;;;;5.40;4.90;;;;;;;6.07;80.58;100663.53;4993073;28;20235;-81
2021/12/15 04:41:16;;;;;;;6.17;5.57;;;;;;;6.11;80.62;100661.41;5022644;23;20238;-82
2021/12/15 04:44:21;;;;;;;5.53;5.03;;;;;;;6.07;80.00;100652.91;5027793;28;20226;-81
2021/12/15 04:46:58;;;;;;;5.90;5.30;;;;;;;6.13;80.28;100678.84;5016617;23;20588;-81
2021/12/15 04:49:32;;;;;;;5.93;5.00;;;;;;;6.09;79.92;100674.03;4977205;28;20275;-81
2021/12/15 04:52:05;;;;;;;5.03;4.63;;;;;;;6.20;78.93;100674.53;5046035;23;20672;-83
2021/12/15 04:54:34;;;;;;;5.23;4.70;;;;;;;6.18;79.47;100678.34;5056434;23;20221;-82
2021/12/15 04:57:09;;;;;;;5.03;4.63;;;;;;;6.22;79.16;100694.81;5055925;23;20233;-82
2021/12/15 04:59:47;;;;;;;4.90;4.50;;;;;;;6.17;79.02;100690.81;5058482;23;20238;-82
2021/12/15 05:02:23;;;;;;;4.77;4.37;;;;;;;6.15;79.28;100695.50;5075452;23;20378;-81
2021/12/15 05:05:09;;;;;;;4.60;4.20;;;;;;;6.12;78.96;100685.16;5072086;28;20181;-81
2021/12/15 05:07:53;;;;;;;5.03;4.27;;;;;;;6.24;78.91;100692.84;5071290;28;20197;-81
2021/12/15 05:10:24;;;;;;;4.83;4.40;;;;;;;6.27;78.32;100692.50;5070631;23;20238;-82
2021/12/15 05:13:11;;;;;;;4.20;3.80;;;;;;;6.35;77.97;100687.16;5035290;28;20316;-81
2021/12/15 05:16:20;;;;;;;4.50;4.10;;;;;;;6.27;78.93;100695.16;5051328;28;20234;-81
2021/12/15 05:18:54;;;;;;;4.97;4.50;;;;;;;6.36;78.35;100694.16;5040352;28;20249;-82
2021/12/15 05:21:51;;;;;;;4.80;4.33;;;;;;;6.34;78.08;100691.69;5048458;23;20248;-81
2021/12/15 05:24:59;;;;;;;4.47;4.17;;;;;;;6.21;78.98;100688.66;5056464;23;20230;-81
2021/12/15 05:27:27;;;;;;;4.63;4.23;;;;;;;6.23;79.04;100699.16;5049996;28;20232;-81
2021/12/15 05:30:05;;;;;;;4.93;4.43;;;;;;;6.26;78.85;100688.16;5044454;23;20229;-81
2021/12/15 05:32:35;;;;;;;4.97;4.57;;;;;;;6.25;78.82;100705.16;5058817;28;20229;-82
2021/12/15 05:35:20;;;;;;;5.00;4.60;;;;;;;6.22;78.85;100700.13;5062670;23;20297;-81
2021/12/15 05:38:17;;;;;;;5.40;4.90;;;;;;;6.18;78.42;100708.47;5058256;23;20234;-81
2021/12/15 05:41:21;;;;;;;5.40;4.97;;;;;;;6.18;78.42;100711.13;5040268;23;20225;-82
2021/12/15 05:43:52;;;;;;;4.43;4.03;;;;;;;6.27;78.17;100709.28;5014639;28;20240;-82
2021/12/15 05:46:45;;;;;;;4.57;3.93;;;;;;;6.15;78.04;100706.16;5060438;23;20205;-82
2021/12/15 05:49:39;;;;;;;4.47;4.07;;;;;;;6.28;77.01;100712.78;5070687;28;20288;-82
2021/12/15 05:52:14;;;;;;;4.77;4.37;;;;;;;6.36;76.83;100713.63;5067532;23;20234;-82
2021/12/15 05:54:43;;;;;;;4.73;4.33;;;;;;;6.39;76.92;100725.78;5059277;23;20229;-81
2021/12/15 05:57:11;;;;;;;4.57;4.13;;;;;;;6.31;77.38;100723.94;5061399;23;20249;-82
2021/12/15 05:59:48;;;;;;;6.07;4.37;;;;;;;6.39;76.63;100729.25;5083621;23;20234;-82
2021/12/15 06:02:41;;;;;;;6.10;5.00;;;;;;;6.31;77.48;100733.75;5033697;28;20249;-81
2021/12/15 06:05:14;;;;;;;5.53;5.03;;;;;;;6.40;76.78;100727.44;5049147;23;20249;-81
2021/12/15 06:07:46;;;;;;;5.73;5.23;;;;;;;6.36;76.52;100740.25;5058383;23;20229;-82
2021/12/15 06:10:23;;;;;;;5.40;4.90;;;;;;;6.30;77.11;100726.78;5042101;23;20674;-82
2021/12/15 06:12:56;;;;;;;5.33;4.83;;;;;;;6.25;77.11;100724.63;5003204;23;20251;-81
2021/12/15 06:15:32;;;;;;;6.03;5.53;;;;;;;6.27;77.39;100738.56;5054867;23;20641;-82
2021/12/15 06:18:32;;;;;;;5.57;5.07;;;;;;;6.32;77.39;100732.75;4997796;23;1498415;-82
2021/12/15 06:21:00;;;;;;;5.60;5.10;;;;;;;6.19;76.67;100734.09;5052502;28;20210;-82
2021/12/15 06:23:41;;;;;;;5.87;5.27;;;;;;;6.17;76.96;100727.25;5044423;23;20237;-82
2021/12/15 06:26:30;;;;;;;6.17;5.60;;;;;;;6.19;77.35;100734.09;5051242;23;20214;-81
2021/12/15 06:29:14;;;;;;;5.70;5.10;;;;;;;6.33;76.51;100753.06;4989260;23;20303;-82
2021/12/15 06:31:45;;;;;;;5.70;5.10;;;;;;;6.39;76.34;100747.09;5076538;23;20308;-82
2021/12/15 06:34:12;;;;;;;4.93;4.53;;;;;;;6.33;76.18;100759.22;5006776;23;20238;-82
2021/12/15 06:37:30;;;;;;;4.57;4.17;;;;;;;6.42;75.41;100771.53;5024523;28;20230;-83
2021/12/15 06:40:10;;;;;;;4.70;4.30;;;;;;;6.46;75.68;100780.84;5045672;23;20205;-82
2021/12/15 06:42:57;;;;;;;4.77;4.37;;;;;;;6.41;76.47;100782.34;5061766;23;20245;-82
2021/12/15 06:45:46;;;;;;;4.70;4.30;;;;;;;6.40;75.06;100781.50;5050927;23;20234;-81
2021/12/15 07:00:20;;;;;;;5.70;5.20;;;;;;;6.39;75.47;100808.31;5060639;23;20245;-82
2021/12/15 07:02:50;;;;;;;7.70;5.77;;;;;;;6.34;75.18;100807.97;5039489;28;20229;-81
2021/12/15 07:05:40;;;;;;;6.00;5.50;;;;;;;6.32;75.01;100797.47;5039649;28;20229;-82
2021/12/15 07:08:12;;;;;;;6.30;5.70;;;;;;;6.48;74.88;100805.50;5075726;23;20230;-82
2021/12/15 07:11:03;;;;;;;5.70;5.20;;;;;;;6.59;74.24;100812.31;5022718;28;20230;-82
2021/12/15 07:13:30;;;;;;;6.13;5.30;;;;;;;6.68;74.52;100819.31;5086966;23;20214;-80
2021/12/15 07:16:58;;;;;;;5.70;5.20;;;;;;;6.63;74.71;100824.28;5042656;23;20297;-81
2021/12/15 07:22:36;;;;;;;5.70;5.20;;;;;;;6.71;74.93;100834.97;5013781;28;20206;-81
2021/12/15 07:25:09;;;;;;;5.10;4.70;;;;;;;6.70;73.21;100832.47;5039184;23;20207;-81
2021/12/15 07:27:59;;;;;;;5.97;5.47;;;;;;;6.85;73.73;100850.28;5045211;23;20201;-81
2021/12/15 07:30:48;;;;;;;8.03;6.30;;;;;;;6.96;73.17;100849.94;5062119;23;20190;-81
2021/12/15 07:33:22;;;;;;;5.70;5.10;;;;;;;7.04;72.13;100849.97;5064081;22;20246;-81
2021/12/15 07:35:49;;;;;;;7.03;6.33;;;;;;;7.01;72.57;100850.28;5045217;23;20238;-81
2021/12/15 07:38:34;;;;;;;6.30;5.80;;;;;;;7.03;72.21;100850.97;5057305;23;20234;-81
2021/12/15 07:41:05;;;;;;;6.30;5.73;;;;;;;7.19;72.11;100852.75;5064717;23;20225;-81
2021/12/15 07:44:07;;;;;;;6.80;6.10;;;;;;;7.32;71.69;100860.25;5063814;28;20209;-81
2021/12/15 07:47:06;;;;;;;6.80;6.20;;;;;;;7.30;72.29;100852.44;4961390;28;20227;-81
2021/12/15 07:49:49;;;;;;;6.83;6.17;;;;;;;7.34;71.94;100858.25;4976337;28;20224;-81
2021/12/15 07:52:33;;;;;;;6.87;6.27;;;;;;;7.37;71.98;100865.94;4984945;23;20232;-82
2021/12/15 07:55:06;;;;;;;8.33;6.80;;;;;;;7.39;71.94;100856.75;5014223;28;20204;-82
2021/12/15 07:58:12;;;;;;;7.03;6.43;;;;;;;7.58;72.40;100870.72;5031617;23;20236;-81
2021/12/15 08:00:44;;;;;;;6.77;6.17;;;;;;;7.59;71.77;100867.03;5105351;23;20223;-82
2021/12/15 08:03:36;;;;;;;7.07;6.37;;;;;;;7.65;72.58;100867.19;5037136;23;20227;-82
2021/12/15 08:06:14;;;;;;;7.07;6.37;;;;;;;7.60;72.25;100869.56;5036227;28;20224;-82
2021/12/15 08:08:48;;;;;;;7.17;6.47;;;;;;;7.71;71.32;100869.16;5042075;23;20222;-81
2021/12/15 08:11:40;;;;;;;6.80;6.20;;;;;;;7.72;71.82;100875.34;5013821;23;20183;-81
2021/12/15 08:14:46;;;;;;;6.13;5.53;;;;;;;7.75;70.91;100864.31;5028117;28;20242;-82
2021/12/15 08:17:23;;;;;;;5.63;5.13;;;;;;;7.65;71.18;100867.19;5013338;28;20230;-82
2021/12/15 08:19:50;;;;;;;5.37;4.87;;;;;;;7.68;70.84;100872.19;5045326;23;20226;-82
2021/12/15 08:22:21;;;;;;;5.50;5.00;;;;;;;7.74;70.16;100868.00;4996989;28;20321;-81
2021/12/15 08:24:48;;;;;;;4.90;4.50;;;;;;;7.63;70.45;100879.03;5015205;28;20211;-82
2021/12/15 08:27:42;;;;;;;5.50;5.00;;;;;;;7.65;71.01;100888.50;5015029;28;20160;-82
2021/12/15 08:30:19;;;;;;;5.40;4.90;;;;;;;7.62;70.95;100896.88;5033505;28;20222;-82
2021/12/15 08:33:05;;;;;;;4.77;4.37;;;;;;;7.61;70.74;100894.34;5045462;23;20253;-82
2021/12/15 08:36:05;;;;;;;5.33;4.83;;;;;;;7.61;71.39;100897.88;5048269;23;20173;-82
2021/12/15 08:38:37;;;;;;;4.97;4.57;;;;;;;7.62;71.03;100898.69;5062628;23;20206;-82
2021/12/15 08:41:43;;;;;;;4.67;4.27;;;;;;;7.63;71.14;100903.03;5027811;23;20277;-81
2021/12/15 08:44:26;;;;;;;4.53;4.07;;;;;;;7.83;70.18;100905.16;5040530;28;20216;-81
2021/12/15 08:47:00;;;;;;;4.50;4.10;;;;;;;7.77;69.99;100903.19;5053261;28;20230;-81
2021/12/15 08:49:37;;;;;;;4.70;4.30;;;;;;;7.96;70.44;100915.31;5045198;23;20309;-81
2021/12/15 08:52:24;;;;;;;4.57;4.17;;;;;;;8.12;70.05;100919.75;5051738;23;20222;-81
2021/12/15 08:55:03;;;;;;;4.70;4.30;;;;;;;8.11;69.61;100926.09;5065853;23;20583;-81
2021/12/15 08:57:41;;;;;;;4.50;4.10;;;;;;;8.28;69.20;100923.19;5079401;23;20276;-81
2021/12/15 09:00:19;;;;;;;4.83;4.43;;;;;;;8.27;69.85;100918.00;5077799;23;20233;-82
2021/12/15 09:02:49;;;;;;;4.50;4.10;;;;;;;8.22;69.20;100907.84;5208479;23;20185;-81
2021/12/15 09:05:45;;;;;;;4.70;4.23;;;;;;;8.34;68.91;100916.34;5059501;23;20266;-82
2021/12/15 09:08:36;;;;;;;4.40;4.00;;;;;;;8.39;69.34;100917.50;5063660;23;20237;31
2021/12/15 09:11:27;;;;;;;4.13;3.70;;;;;;;8.28;68.62;100909.00;5030065;23;20227;-81
2021/12/15 09:14:00;;;;;;;3.97;3.47;;;;;;;8.34;68.55;100919.03;5051498;23;20288;-82
2021/12/15 09:16:43;;;;;;;3.80;3.50;;;;;;;8.37;68.39;100900.81;5037249;28;20201;-82
2021/12/15 09:19:11;;;;;;;4.20;3.80;;;;;;;8.50;68.60;100924.28;5038311;28;20227;-82
2021/12/15 09:21:51;;;;;;;3.97;3.67;;;;;;;8.55;68.51;100935.28;5054317;28;20217;-82
2021/12/15 09:25:16;;;;;;;4.10;3.70;;;;;;;8.45;68.73;100921.28;5075843;23;20223;-81
2021/12/15 09:28:01;;;;;;;4.10;3.80;;;;;;;8.56;68.12;100923.59;5057229;23;20210;-82
2021/12/15 09:30:47;;;;;;;4.20;3.80;;;;;;;8.74;67.66;100929.50;5026320;28;20200;-81
2021/12/15 09:33:21;;;;;;;4.93;4.43;;;;;;;8.78;67.82;100929.97;5016611;28;20181;-82
2021/12/15 09:35:55;;;;;;;4.60;4.20;;;;;;;8.79;66.93;100924.44;5021232;23;20298;-82
2021/12/15 09:38:59;;;;;;;5.07;3.97;;;;;;;8.80;66.66;100922.63;5024035;23;20199;-82
2021/12/15 09:41:32;;;;;;;4.77;4.17;;;;;;;8.79;67.26;100920.94;5041297;23;20265;-82
2021/12/15 09:44:25;;;;;;;4.07;3.40;;;;;;;8.77;67.44;100923.78;5042609;23;20257;-81
2021/12/15 09:47:26;;;;;;;4.73;4.30;;;;;;;8.76;67.73;100927.50;5120864;23;20252;-82
2021/12/15 10:20:21;;;;;;;4.10;3.70;;;;;;;8.90;67.87;100915.19;5107745;23;20238;-82
2021/12/15 10:23:07;;;;;;;4.13;3.50;;;;;;;8.81;67.74;100908.25;5207345;23;20223;-82
2021/12/15 10:26:11;;;;;;;4.03;3.50;;;;;;;8.94;67.81;100911.16;4977780;28;20231;-82
2021/12/15 10:29:12;;;;;;;3.77;3.47;;;;;;;8.93;67.28;100895.28;4998004;28;20279;-82
2021/12/15 10:32:09;;;;;;;3.20;2.90;;;;;;;9.11;67.17;100902.00;4998439;28;20208;-81
2021/12/15 10:34:36;;;;;;;3.30;3.00;;;;;;;9.07;66.71;100903.38;5027391;23;20211;-82
2021/12/15 10:37:07;;;;;;;3.30;3.00;;;;;;;9.11;66.51;100898.50;5056633;23;20262;-82
2021/12/15 10:39:45;;;;;;;3.30;3.00;;;;;;;9.02;67.13;100894.22;5012878;23;20234;-81
2021/12/15 10:42:48;;;;;;;5.00;3.63;;;;;;;9.10;67.77;100910.19;5032014;23;20302;-82
2021/12/15 10:45:21;;;;;;;3.70;3.40;;;;;;;8.95;68.21;100894.13;5061627;23;20225;-82
2021/12/15 10:47:52;;;;;;;3.50;3.20;;;;;;;9.22;67.20;100904.25;5037913;28;20268;-81
2021/12/15 10:51:00;;;;;;;3.50;3.20;;;;;;;9.24;66.70;100899.53;5041972;28;20242;-82
2021/12/15 10:53:35;;;;;;;3.70;3.40;;;;;;;9.22;66.45;100880.19;5063971;23;20234;-82
2021/12/15 10:56:24;;;;;;;4.00;3.60;;;;;;;9.39;66.22;100896.06;5041411;23;20226;-81
2021/12/15 10:59:11;;;;;;;4.17;3.30;;;;;;;9.30;66.44;100892.66;5028550;23;20298;-81
2021/12/15 11:02:32;;;;;;;2.97;2.77;;;;;;;9.18;65.59;100894.09;5035884;28;20221;-82
2021/12/15 11:05:22;;;;;;;2.80;2.60;;;;;;;9.21;65.16;100894.56;5022520;28;20183;-81
2021/12/15 11:08:00;;;;;;;2.80;2.57;;;;;;;9.04;65.55;100863.63;5057141;23;20225;-81
2021/12/15 11:10:31;;;;;;;2.73;2.53;;;;;;;9.14;65.37;100884.78;5022974;23;20227;-82
2021/12/15 11:13:14;;;;;;;2.53;2.33;;;;;;;9.18;64.86;100886.91;5012849;28;20211;-81
2021/12/15 11:15:49;;;;;;;2.60;2.40;;;;;;;9.24;64.83;100882.66;5038724;23;20220;-81
2021/12/15 11:18:25;;;;;;;2.73;2.43;;;;;;;9.24;64.65;100888.00;5131529;23;20297;-82
2021/12/15 11:20:59;;;;;;;3.47;2.70;;;;;;;9.15;65.47;100884.59;5031020;23;20222;-82
2021/12/15 11:23:31;;;;;;;3.57;2.30;;;;;;;9.16;65.59;100880.06;5045076;28;20236;-82
2021/12/15 11:26:15;;;;;;;2.37;2.17;;;;;;;9.23;64.60;100881.88;5032774;28;20494;-82
2021/12/15 11:28:49;;;;;;;2.57;2.37;;;;;;;9.12;64.94;100878.78;5072265;23;20177;-82
2021/12/15 11:31:46;;;;;;;2.40;2.00;;;;;;;8.92;65.71;100870.41;5015634;23;20222;-81
2021/12/15 11:34:18;;;;;;;2.73;2.50;;;;;;;8.61;66.59;100869.63;5054081;23;20328;-81
2021/12/15 11:37:11;;;;;;;2.27;2.10;;;;;;;8.79;65.99;100887.03;5034248;28;20281;-82
2021/12/15 11:39:43;;;;;;;2.10;2.00;;;;;;;8.66;66.19;100878.78;5049137;28;20290;-81
2021/12/15 11:42:14;;;;;;;2.97;2.33;;;;;;;8.70;66.28;100887.28;5030031;28;20238;-82
2021/12/15 11:44:44;;;;;;;2.67;2.47;;;;;;;8.56;66.69;100872.84;5061956;23;20258;-81
2021/12/15 11:47:33;;;;;;;3.30;2.00;;;;;;;8.55;67.62;100876.50;4978933;28;20239;-81
2021/12/15 11:50:14;;;;;;;2.17;1.97;;;;;;;8.71;66.78;100878.25;5012343;28;20564;-82
2021/12/15 11:53:04;;;;;;;2.50;2.13;;;;;;;8.53;67.89;100872.34;5014099;28;20236;-81
2021/12/15 11:55:41;;;;;;;2.93;2.20;;;;;;;8.58;67.80;100861.97;5029915;23;20234;-82
2021/12/15 11:58:36;;;;;;;2.40;2.20;;;;;;;8.63;67.80;100855.06;5040459;23;20226;-82
2021/12/15 12:01:36;;;;;;;2.50;2.30;;;;;;;8.76;67.65;100857.19;5054229;23;20230;-81
2021/12/15 12:04:45;;;;;;;4.73;2.40;;;;;;;8.79;67.81;100854.13;5017428;28;20235;-82
2021/12/15 12:07:38;;;;;;;2.67;2.47;;;;;;;8.87;67.89;100850.56;5017014;28;20227;-82
2021/12/15 12:10:20;;;;;;;2.57;2.37;;;;;;;8.95;66.98;100851.34;5017985;28;20250;-81
2021/12/15 12:13:49;;;;;;;2.87;2.10;;;;;;;8.99;66.39;100841.97;5034236;28;20218;-82
2021/12/15 12:16:22;;;;;;;2.47;2.27;;;;;;;9.04;66.75;100844.09;5017388;28;20230;-82
2021/12/15 12:19:14;;;;;;;2.40;2.20;;;;;;;8.92;66.25;100843.69;5040788;23;20244;-82
2021/12/15 12:22:10;;;;;;;2.37;2.17;;;;;;;9.11;65.94;100824.47;5134921;23;20265;-81
2021/12/15 12:24:52;;;;;;;2.13;1.93;;;;;;;9.27;65.04;100837.69;5123807;23;20222;-81
2021/12/15 12:27:59;;;;;;;2.37;2.17;;;;;;;9.09;65.54;100826.50;5004484;23;20232;-82
2021/12/15 12:31:25;;;;;;;2.10;1.90;;;;;;;9.00;66.20;100834.78;5009530;28;20222;-83
2021/12/15 12:34:01;;;;;;;2.40;2.20;;;;;;;8.88;66.52;100818.31;5030727;28;20183;-83
2021/12/15 12:36:43;;;;;;;2.30;2.10;;;;;;;8.97;66.06;100835.13;5021019;23;20216;-83
2021/12/15 12:39:17;;;;;;;2.50;2.30;;;;;;;8.90;66.78;100827.00;5012318;23;20241;-83
2021/12/15 12:42:52;;;;;;;2.40;2.20;;;;;;;8.99;66.20;100827.75;5009871;23;20629;-81
2021/12/15 12:45:39;;;;;;;2.07;1.93;;;;;;;9.07;65.98;100833.88;5016360;23;20231;-82
2021/12/15 12:49:21;;;;;;;2.43;2.10;;;;;;;9.12;66.05;100828.81;5026092;28;20231;-81
2021/12/15 13:02:21;;;;;;;2.00;1.90;;;;;;;8.71;66.13;100817.63;5140594;23;20181;-82
2021/12/15 13:06:03;;;;;;;2.23;1.70;;;;;;;8.75;66.58;100834.97;5150974;23;20230;-82
2021/12/15 13:09:33;;;;;;;2.40;2.07;;;;;;;8.67;67.19;100831.53;4988625;28;20227;-82
2021/12/15 13:12:48;;;;;;;2.27;2.07;;;;;;;8.74;66.67;100843.16;5025010;23;20213;-81
2021/12/15 13:16:56;;;;;;;2.20;2.00;;;;;;;8.66;66.88;100833.38;5065325;23;20899;-82
2021/12/15 13:20:06;;;;;;;2.40;2.20;;;;;;;8.59;67.22;100821.72;4988045;28;20253;-82
2021/12/15 13:23:08;;;;;;;3.03;2.47;;;;;;;8.71;66.85;100831.00;4978694;23;20243;-81
2021/12/15 13:28:47;;;;;;;3.53;2.67;;;;;;;8.71;66.72;100831.00;4979497;28;20212;-81
2021/12/15 13:32:06;;;;;;;2.97;2.30;;;;;;;8.81;66.16;100838.78;4996228;28;20180;-81
2021/12/15 13:35:17;;;;;;;2.80;2.40;;;;;;;8.74;66.42;100843.97;4985942;28;20164;-82
2021/12/15 13:38:48;;;;;;;2.90;2.07;;;;;;;8.70;66.15;100842.69;5064051;23;20230;-81
2021/12/15 13:41:48;;;;;;;2.80;2.20;;;;;;;8.66;66.55;100844.06;5045968;23;20246;-82
2021/12/15 13:45:40;;;;;;;2.37;2.17;;;;;;;8.57;67.27;100837.09;5039134;23;20214;-82
2021/12/15 13:49:44;;;;;;;2.53;2.30;;;;;;;8.51;67.29;100829.78;5049981;23;20212;-81
2021/12/15 13:52:44;;;;;;;3.17;2.50;;;;;;;8.33;67.98;100835.41;5015238;28;20191;-82
2021/12/15 13:56:44;;;;;;;3.50;3.03;;;;;;;8.40;68.06;100843.53;5002025;28;20713;-82
2021/12/15 13:59:52;;;;;;;3.17;2.30;;;;;;;8.46;67.18;100837.50;5015873;28;20265;-81
2021/12/15 14:03:54;;;;;;;2.57;2.37;;;;;;;8.12;67.56;100813.00;5037018;23;20264;-81
2021/12/15 14:07:44;;;;;;;3.63;2.50;;;;;;;8.20;67.18;100845.81;4977190;29;20234;-81
2021/12/15 14:11:57;;;;;;;2.70;2.50;;;;;;;8.22;67.15;100850.94;5034747;28;20217;-83
2021/12/15 14:15:17;;;;;;;3.93;3.37;;;;;;;8.27;66.81;100845.91;5036800;28;20210;-80
2021/12/15 14:19:16;;;;;;;3.70;3.40;;;;;;;8.18;67.54;100849.63;5034241;28;20322;-81
2021/12/15 14:22:27;;;;;;;2.33;2.13;;;;;;;8.07;67.29;100832.16;5008407;28;20211;-81
2021/12/15 14:25:36;;;;;;;2.67;2.47;;;;;;;8.09;67.66;100842.69;5038036;28;20190;-81
2021/12/15 14:29:30;;;;;;;2.63;2.43;;;;;;;8.07;67.58;100848.19;5037614;28;20219;-81
2021/12/15 14:37:07;;;;;;;3.13;2.83;;;;;;;7.96;67.97;100846.75;5027316;28;20226;-81
2021/12/15 14:41:17;;;;;;;3.17;2.50;;;;;;;7.95;68.26;100838.91;4993745;28;20213;-81
2021/12/15 14:57:53;;;;;;;2.70;2.50;;;;;;;7.66;69.26;100826.16;4966159;23;20266;-80
2021/12/15 15:01:18;;;;;;;2.97;2.67;;;;;;;7.63;69.58;100833.69;5049866;28;20210;-81
2021/12/15 15:04:45;;;;;;;3.57;2.70;;;;;;;7.67;69.19;100838.50;5058444;28;20214;-81
2021/12/15 15:19:05;;;;;;;3.07;2.77;;;;;;;7.66;69.93;100847.50;5020008;28;20730;-81
2021/12/15 15:21:57;;;;;;;2.97;2.67;;;;;;;7.48;70.17;100826.41;4980607;28;20223;-80
2021/12/15 15:25:23;;;;;;;3.90;2.63;;;;;;;7.62;70.32;100848.84;5005920;28;20231;-80